createdAt,value
2023-02-24T00:00:13.367Z,6.28
2023-02-24T00:01:13.454Z,5.48
2023-02-24T00:02:13.818Z,7.80
2023-02-24T00:03:14.218Z,11.28
2023-02-24T00:04:13.475Z,23.88
2023-02-24T00:05:13.438Z,14.92
2023-02-24T00:06:13.734Z,15.92
2023-02-24T00:07:14.006Z,19.32
2023-02-24T00:08:12.939Z,12.04
2023-02-24T00:09:13.135Z,9.80
2023-02-24T00:10:13.144Z,5.96
2023-02-24T00:11:13.280Z,7.04
2023-02-24T00:12:13.398Z,8.72
2023-02-24T00:13:13.378Z,8.56
2023-02-24T00:14:18.491Z,7.88
2023-02-24T00:15:13.557Z,6.16
2023-02-24T00:16:13.989Z,8.16
2023-02-24T00:17:13.035Z,4.76
2023-02-24T00:18:13.018Z,5.04
2023-02-24T00:19:13.081Z,3.68
2023-02-24T00:20:13.123Z,5.48
2023-02-24T00:21:13.104Z,1.24
2023-02-24T00:22:13.102Z,2.24
2023-02-24T00:23:13.314Z,5.36
2023-02-24T00:24:14.511Z,3.40
2023-02-24T00:25:18.458Z,8.32
2023-02-24T00:26:15.323Z,4.20
2023-02-24T00:27:13.570Z,2.16
2023-02-24T00:28:13.791Z,3.08
2023-02-24T00:29:13.708Z,4.24
2023-02-24T00:30:13.986Z,5.00
2023-02-24T00:31:13.284Z,6.72
2023-02-24T00:32:14.157Z,2.80
2023-02-24T00:33:13.497Z,4.20
2023-02-24T00:34:14.856Z,3.72
2023-02-24T00:35:14.348Z,4.24
2023-02-24T00:36:13.375Z,0.56
2023-02-24T00:37:13.449Z,2.68
2023-02-24T00:38:13.768Z,6.64
2023-02-24T00:39:14.067Z,6.20
2023-02-24T00:40:13.052Z,5.36
2023-02-24T00:41:13.244Z,4.08
2023-02-24T00:42:13.352Z,3.72
2023-02-24T00:43:13.535Z,4.72
2023-02-24T00:44:15.409Z,0.28
2023-02-24T00:45:13.863Z,7.04
2023-02-24T00:46:14.164Z,7.72
2023-02-24T00:47:13.777Z,3.64
2023-02-24T00:48:13.954Z,3.44
2023-02-24T00:49:12.999Z,5.96
2023-02-24T00:50:13.096Z,5.48
2023-02-24T00:51:13.253Z,1.24
2023-02-24T00:52:13.965Z,4.80
2023-02-24T00:53:13.389Z,3.20
2023-02-24T00:54:13.396Z,5.44
2023-02-24T00:55:13.741Z,1.64
2023-02-24T00:56:14.072Z,4.00
2023-02-24T00:57:13.104Z,4.96
2023-02-24T00:58:12.978Z,6.36
2023-02-24T00:59:13.471Z,7.92
2023-02-24T01:00:13.795Z,5.48
2023-02-24T01:01:13.957Z,8.52
2023-02-24T01:02:12.987Z,5.44
2023-02-24T01:03:13.309Z,4.56
2023-02-24T01:04:13.315Z,4.60
2023-02-24T01:05:13.280Z,6.64
2023-02-24T01:06:13.229Z,6.72
2023-02-24T01:07:13.712Z,11.56
2023-02-24T01:08:13.570Z,8.08
2023-02-24T01:09:13.558Z,6.84
2023-02-24T01:10:13.789Z,5.04
2023-02-24T01:11:15.094Z,0.44
2023-02-24T01:12:13.092Z,0.80
2023-02-24T01:13:13.180Z,2.32
2023-02-24T01:14:13.166Z,5.72
2023-02-24T01:15:14.371Z,1.76
2023-02-24T01:16:13.601Z,5.32
2023-02-24T01:17:13.874Z,7.88
2023-02-24T01:18:14.324Z,9.39
2023-02-24T01:19:13.237Z,3.84
2023-02-24T01:20:13.217Z,6.00
2023-02-24T01:21:18.321Z,5.84
2023-02-24T01:22:13.397Z,5.24
2023-02-24T01:23:14.392Z,7.24
2023-02-24T01:24:13.718Z,3.67
2023-02-24T01:25:13.570Z,7.47
2023-02-24T01:26:13.557Z,14.43
2023-02-24T01:27:13.508Z,9.56
2023-02-24T01:28:13.493Z,8.16
2023-02-24T01:29:13.505Z,8.32
2023-02-24T01:30:13.487Z,10.84
2023-02-24T01:31:13.533Z,8.80
2023-02-24T01:32:14.209Z,8.04
2023-02-24T01:33:13.696Z,1.72
2023-02-24T01:34:13.654Z,11.24
2023-02-24T01:35:13.673Z,3.24
2023-02-24T01:36:13.999Z,7.28
2023-02-24T01:37:12.956Z,6.40
2023-02-24T01:38:13.708Z,7.52
2023-02-24T01:39:13.724Z,8.92
2023-02-24T01:40:13.875Z,5.36
2023-02-24T01:41:12.904Z,7.76
2023-02-24T01:42:13.676Z,6.72
2023-02-24T01:43:14.279Z,4.16
2023-02-24T01:44:13.612Z,1.72
2023-02-24T01:45:13.605Z,10.04
2023-02-24T01:46:13.636Z,1.04
2023-02-24T01:47:13.710Z,4.68
2023-02-24T01:48:13.651Z,2.40
2023-02-24T01:49:13.557Z,5.52
2023-02-24T01:50:13.522Z,6.48
2023-02-24T01:51:13.596Z,2.16
2023-02-24T01:52:13.540Z,7.00
2023-02-24T01:53:13.696Z,7.84
2023-02-24T01:54:13.762Z,12.00
2023-02-24T01:55:13.679Z,13.56
2023-02-24T01:56:13.610Z,12.60
2023-02-24T01:57:13.557Z,8.48
2023-02-24T01:58:13.593Z,10.92
2023-02-24T01:59:13.501Z,5.84
2023-02-24T02:00:13.715Z,6.84
2023-02-24T02:01:13.610Z,7.04
2023-02-24T02:02:14.028Z,7.68
2023-02-24T02:03:14.577Z,11.40
2023-02-24T02:04:14.008Z,10.36
2023-02-24T02:05:13.135Z,16.20
2023-02-24T02:06:13.515Z,11.04
2023-02-24T02:07:13.674Z,12.60
2023-02-24T02:08:13.898Z,6.52
2023-02-24T02:09:13.282Z,18.80
2023-02-24T02:10:13.469Z,1.36
2023-02-24T02:11:13.441Z,7.12
2023-02-24T02:12:13.363Z,3.04
2023-02-24T02:13:13.588Z,3.60
2023-02-24T02:14:13.839Z,7.84
2023-02-24T02:15:14.111Z,15.00
2023-02-24T02:16:13.788Z,11.80
2023-02-24T02:17:13.609Z,6.28
2023-02-24T02:18:13.587Z,9.00
2023-02-24T02:19:13.695Z,12.36
2023-02-24T02:20:13.630Z,11.56
2023-02-24T02:21:13.814Z,9.68
2023-02-24T02:22:13.787Z,15.72
2023-02-24T02:23:13.705Z,13.36
2023-02-24T02:24:13.946Z,11.96
2023-02-24T02:25:13.025Z,6.48
2023-02-24T02:26:13.008Z,7.40
2023-02-24T02:27:13.086Z,8.12
2023-02-24T02:28:13.289Z,1.64
2023-02-24T02:29:13.653Z,4.96
2023-02-24T02:30:13.718Z,10.04
2023-02-24T02:31:14.216Z,13.80
2023-02-24T02:32:13.609Z,11.68
2023-02-24T02:33:13.668Z,9.20
2023-02-24T02:34:14.164Z,4.24
2023-02-24T02:35:13.119Z,3.56
2023-02-24T02:36:13.200Z,1.04
2023-02-24T02:37:13.157Z,5.60
2023-02-24T02:38:13.335Z,11.12
2023-02-24T02:39:13.449Z,12.16
2023-02-24T02:40:13.349Z,5.36
2023-02-24T02:41:13.290Z,9.60
2023-02-24T02:42:13.404Z,10.52
2023-02-24T02:43:13.468Z,4.28
2023-02-24T02:44:13.810Z,5.16
2023-02-24T02:45:14.022Z,12.24
2023-02-24T02:46:13.436Z,7.52
2023-02-24T02:47:13.513Z,8.64
2023-02-24T02:48:13.602Z,9.52
2023-02-24T02:49:13.587Z,11.76
2023-02-24T02:50:13.775Z,7.68
2023-02-24T02:51:14.061Z,10.28
2023-02-24T02:52:12.941Z,12.92
2023-02-24T02:53:12.979Z,14.40
2023-02-24T02:54:13.245Z,8.32
2023-02-24T02:55:13.379Z,3.52
2023-02-24T02:56:13.348Z,0.44
2023-02-24T02:57:13.313Z,5.72
2023-02-24T02:58:13.419Z,4.28
2023-02-24T02:59:13.326Z,0.36
2023-02-24T03:00:13.241Z,3.04
2023-02-24T03:01:13.364Z,8.28
2023-02-24T03:02:13.402Z,8.28
2023-02-24T03:03:13.558Z,3.08
2023-02-24T03:04:13.605Z,7.16
2023-02-24T03:05:13.712Z,1.20
2023-02-24T03:06:13.641Z,1.68
2023-02-24T03:07:13.779Z,1.84
2023-02-24T03:08:13.740Z,1.80
2023-02-24T03:09:14.042Z,0.08
2023-02-24T03:10:13.220Z,4.16
2023-02-24T03:11:13.200Z,7.72
2023-02-24T03:12:13.373Z,2.28
2023-02-24T03:13:13.378Z,2.32
2023-02-24T03:14:13.373Z,3.72
2023-02-24T03:15:13.606Z,8.88
2023-02-24T03:16:14.002Z,9.00
2023-02-24T03:17:13.474Z,7.32
2023-02-24T03:18:13.510Z,3.16
2023-02-24T03:19:13.400Z,1.16
2023-02-24T03:20:13.343Z,2.76
2023-02-24T03:21:13.393Z,1.88
2023-02-24T03:22:13.553Z,3.68
2023-02-24T03:23:13.491Z,3.84
2023-02-24T03:24:13.602Z,2.52
2023-02-24T03:25:13.723Z,4.04
2023-02-24T03:26:13.689Z,6.40
2023-02-24T03:27:13.669Z,4.24
2023-02-24T03:28:13.587Z,0.16
2023-02-24T03:29:13.822Z,5.00
2023-02-24T03:30:13.888Z,8.88
2023-02-24T03:31:12.825Z,4.68
2023-02-24T03:32:14.069Z,9.12
2023-02-24T03:33:13.133Z,8.48
2023-02-24T03:34:13.142Z,6.24
2023-02-24T03:35:13.232Z,0.00
2023-02-24T03:36:13.272Z,4.68
2023-02-24T03:37:13.379Z,11.16
2023-02-24T03:38:13.454Z,6.84
2023-02-24T03:39:13.818Z,5.44
2023-02-24T03:40:14.057Z,6.68
2023-02-24T03:41:12.964Z,6.36
2023-02-24T03:42:12.869Z,3.00
2023-02-24T03:43:16.031Z,3.92
2023-02-24T03:44:13.232Z,3.92
2023-02-24T03:45:13.249Z,5.96
2023-02-24T03:46:13.356Z,2.92
2023-02-24T03:47:13.228Z,10.12
2023-02-24T03:48:13.516Z,12.32
2023-02-24T03:49:13.627Z,2.84
2023-02-24T03:50:13.821Z,6.60
2023-02-24T03:51:13.669Z,9.08
2023-02-24T03:52:13.487Z,8.04
2023-02-24T03:53:13.419Z,5.24
2023-02-24T03:54:13.358Z,4.84
2023-02-24T03:55:13.569Z,6.04
2023-02-24T03:56:13.539Z,5.52
2023-02-24T03:57:13.505Z,5.12
2023-02-24T03:58:13.459Z,2.96
2023-02-24T03:59:15.018Z,1.72
2023-02-24T04:00:12.931Z,7.80
2023-02-24T04:01:12.924Z,11.56
2023-02-24T04:02:13.816Z,1.12
2023-02-24T04:03:14.317Z,5.16
2023-02-24T04:04:13.353Z,7.24
2023-02-24T04:05:13.288Z,9.92
2023-02-24T04:06:13.580Z,5.40
2023-02-24T04:07:13.696Z,5.88
2023-02-24T04:08:13.638Z,10.80
2023-02-24T04:09:13.660Z,16.24
2023-02-24T04:10:13.603Z,13.16
2023-02-24T04:11:13.633Z,10.92
2023-02-24T04:12:14.087Z,11.64
2023-02-24T04:13:13.276Z,12.20
2023-02-24T04:14:13.574Z,23.08
2023-02-24T04:15:13.764Z,7.80
2023-02-24T04:16:13.844Z,3.12
2023-02-24T04:17:13.117Z,8.44
2023-02-24T04:18:13.061Z,4.04
2023-02-24T04:19:12.935Z,0.00
2023-02-24T04:20:12.996Z,3.16
2023-02-24T04:21:12.903Z,4.28
2023-02-24T04:22:12.759Z,7.04
2023-02-24T04:23:13.718Z,11.64
2023-02-24T04:24:13.793Z,8.04
2023-02-24T04:25:14.282Z,1.64
2023-02-24T04:26:13.295Z,7.84
2023-02-24T04:27:13.144Z,10.32
2023-02-24T04:28:13.479Z,6.84
2023-02-24T04:29:13.574Z,6.40
2023-02-24T04:30:13.614Z,5.92
2023-02-24T04:31:13.616Z,7.48
2023-02-24T04:32:14.028Z,3.84
2023-02-24T04:33:13.163Z,11.68
2023-02-24T04:34:13.300Z,12.48
2023-02-24T04:35:13.281Z,15.24
2023-02-24T04:36:13.156Z,12.60
2023-02-24T04:37:13.106Z,12.96
2023-02-24T04:38:13.106Z,6.04
2023-02-24T04:39:13.379Z,0.92
2023-02-24T04:40:13.247Z,0.40
2023-02-24T04:41:13.205Z,7.08
2023-02-24T04:42:13.106Z,8.24
2023-02-24T04:43:13.272Z,6.16
2023-02-24T04:44:13.297Z,4.64
2023-02-24T04:45:13.203Z,10.12
2023-02-24T04:46:13.074Z,12.16
2023-02-24T04:47:13.222Z,12.12
2023-02-24T04:48:13.268Z,12.60
2023-02-24T04:49:13.605Z,13.20
2023-02-24T04:50:13.567Z,2.84
2023-02-24T04:51:13.451Z,9.40
2023-02-24T04:52:13.424Z,8.40
2023-02-24T04:53:13.633Z,4.20
2023-02-24T04:54:13.640Z,16.16
2023-02-24T04:55:13.684Z,7.40
2023-02-24T04:56:13.970Z,0.16
2023-02-24T04:57:13.045Z,0.00
2023-02-24T04:58:13.249Z,0.00
2023-02-24T04:59:13.102Z,3.08
2023-02-24T05:00:12.970Z,2.08
2023-02-24T05:01:13.343Z,0.20
2023-02-24T05:02:20.121Z,0.12
2023-02-24T05:03:13.518Z,3.20
2023-02-24T05:04:13.578Z,4.96
2023-02-24T05:05:14.057Z,2.36
2023-02-24T05:06:13.193Z,0.00
2023-02-24T05:07:13.173Z,13.84
2023-02-24T05:08:13.324Z,12.68
2023-02-24T05:09:13.360Z,10.83
2023-02-24T05:10:13.285Z,11.80
2023-02-24T05:11:13.526Z,5.44
2023-02-24T05:12:13.830Z,13.28
2023-02-24T05:13:14.141Z,8.64
2023-02-24T05:14:13.090Z,14.24
2023-02-24T05:15:12.989Z,12.28
2023-02-24T05:16:12.960Z,3.04
2023-02-24T05:17:12.968Z,5.56
2023-02-24T05:18:12.806Z,4.44
2023-02-24T05:19:14.328Z,9.60
2023-02-24T05:20:13.578Z,10.04
2023-02-24T05:21:13.810Z,2.96
2023-02-24T05:22:13.858Z,7.24
2023-02-24T05:23:13.925Z,5.08
2023-02-24T05:24:18.076Z,2.20
2023-02-24T05:25:13.234Z,7.52
2023-02-24T05:26:13.248Z,4.16
2023-02-24T05:27:13.302Z,3.72
2023-02-24T05:28:13.524Z,3.40
2023-02-24T05:29:13.448Z,5.04
2023-02-24T05:30:13.336Z,6.36
2023-02-24T05:31:13.365Z,15.68
2023-02-24T05:32:13.565Z,8.04
2023-02-24T05:33:13.929Z,6.96
2023-02-24T05:34:13.283Z,7.52
2023-02-24T05:35:13.255Z,6.72
2023-02-24T05:36:13.329Z,8.40
2023-02-24T05:37:13.271Z,2.56
2023-02-24T05:38:13.271Z,1.48
2023-02-24T05:39:13.508Z,3.16
2023-02-24T05:40:13.355Z,1.80
2023-02-24T05:41:13.446Z,4.20
2023-02-24T05:42:13.393Z,10.48
2023-02-24T05:43:13.279Z,8.00
2023-02-24T05:44:13.235Z,3.84
2023-02-24T05:45:13.316Z,2.92
2023-02-24T05:46:13.344Z,7.84
2023-02-24T05:47:13.357Z,8.04
2023-02-24T05:48:13.484Z,11.00
2023-02-24T05:49:13.677Z,5.44
2023-02-24T05:50:13.768Z,7.68
2023-02-24T05:51:13.726Z,15.24
2023-02-24T05:52:13.625Z,14.40
2023-02-24T05:53:13.551Z,8.60
2023-02-24T05:54:18.726Z,10.64
2023-02-24T05:55:14.009Z,13.32
2023-02-24T05:56:12.977Z,10.64
2023-02-24T05:57:12.957Z,11.04
2023-02-24T05:58:12.931Z,17.20
2023-02-24T05:59:13.032Z,9.00
2023-02-24T06:00:12.931Z,5.48
2023-02-24T06:01:13.357Z,8.08
2023-02-24T06:02:13.334Z,9.64
2023-02-24T06:03:13.340Z,10.48
2023-02-24T06:04:13.561Z,10.36
2023-02-24T06:05:13.544Z,3.84
2023-02-24T06:06:13.548Z,4.36
2023-02-24T06:07:13.393Z,6.92
2023-02-24T06:08:13.498Z,0.60
2023-02-24T06:09:13.642Z,5.76
2023-02-24T06:10:13.545Z,6.96
2023-02-24T06:11:13.493Z,8.52
2023-02-24T06:12:13.434Z,9.00
2023-02-24T06:13:18.446Z,9.68
2023-02-24T06:14:13.416Z,18.64
2023-02-24T06:15:13.511Z,19.64
2023-02-24T06:16:13.570Z,11.12
2023-02-24T06:17:13.548Z,10.32
2023-02-24T06:18:14.618Z,8.04
2023-02-24T06:19:13.574Z,14.76
2023-02-24T06:20:13.732Z,13.68
2023-02-24T06:21:13.807Z,9.08
2023-02-24T06:22:13.722Z,6.76
2023-02-24T06:23:14.046Z,13.16
2023-02-24T06:24:13.172Z,3.12
2023-02-24T06:25:18.149Z,2.72
2023-02-24T06:26:13.299Z,2.12
2023-02-24T06:27:13.614Z,8.68
2023-02-24T06:28:13.595Z,9.16
2023-02-24T06:29:13.730Z,14.92
2023-02-24T06:30:14.198Z,12.80
2023-02-24T06:31:13.230Z,18.32
2023-02-24T06:33:13.123Z,0.72
2023-02-24T06:34:14.231Z,4.64
2023-02-24T06:35:13.315Z,19.24
2023-02-24T06:36:13.675Z,20.20
2023-02-24T06:37:14.170Z,9.12
2023-02-24T06:38:13.412Z,11.60
2023-02-24T06:39:13.463Z,5.36
2023-02-24T06:40:13.562Z,14.40
2023-02-24T06:41:13.648Z,22.68
2023-02-24T06:42:13.952Z,20.72
2023-02-24T06:43:13.286Z,23.48
2023-02-24T06:44:13.569Z,42.93
2023-02-24T06:45:13.484Z,35.38
2023-02-24T06:46:13.525Z,22.11
2023-02-24T06:47:13.691Z,25.84
2023-02-24T06:48:13.620Z,19.32
2023-02-24T06:49:13.690Z,19.08
2023-02-24T06:50:13.774Z,15.44
2023-02-24T06:51:13.791Z,6.64
2023-02-24T06:52:13.955Z,16.08
2023-02-24T06:53:13.110Z,11.56
2023-02-24T06:54:13.264Z,8.88
2023-02-24T06:55:13.185Z,18.84
2023-02-24T06:56:13.196Z,15.96
2023-02-24T06:57:13.207Z,13.12
2023-02-24T06:58:13.516Z,14.24
2023-02-24T06:59:14.652Z,10.12
2023-02-24T07:00:13.646Z,15.64
2023-02-24T07:01:13.850Z,42.36
2023-02-24T07:02:14.095Z,36.84
2023-02-24T07:03:13.137Z,23.84
2023-02-24T07:04:13.144Z,13.36
2023-02-24T07:05:13.184Z,22.32
2023-02-24T07:06:14.310Z,16.80
2023-02-24T07:07:13.499Z,17.60
2023-02-24T07:08:13.684Z,16.08
2023-02-24T07:09:13.758Z,14.68
2023-02-24T07:10:14.008Z,17.52
2023-02-24T07:11:13.083Z,17.60
2023-02-24T07:12:13.194Z,14.60
2023-02-24T07:13:13.547Z,13.04
2023-02-24T07:14:13.977Z,6.56
2023-02-24T07:15:13.517Z,16.60
2023-02-24T07:16:13.801Z,21.12
2023-02-24T07:17:14.029Z,15.92
2023-02-24T07:18:13.411Z,23.64
2023-02-24T07:19:13.779Z,14.24
2023-02-24T07:20:13.140Z,7.80
2023-02-24T07:21:13.331Z,10.84
2023-02-24T07:22:13.409Z,13.36
2023-02-24T07:23:13.951Z,23.44
2023-02-24T07:24:13.276Z,8.52
2023-02-24T07:25:13.619Z,11.80
2023-02-24T07:26:14.239Z,19.52
2023-02-24T07:27:13.486Z,22.96
2023-02-24T07:28:13.959Z,11.00
2023-02-24T07:29:14.019Z,14.64
2023-02-24T07:30:13.554Z,16.28
2023-02-24T07:31:15.523Z,22.88
2023-02-24T07:32:15.337Z,20.84
2023-02-24T07:33:19.020Z,43.88
2023-02-24T07:34:15.291Z,23.68
2023-02-24T07:35:13.701Z,22.00
2023-02-24T07:36:14.828Z,16.28
2023-02-24T07:37:14.327Z,7.88
2023-02-24T07:38:14.579Z,27.16
2023-02-24T07:39:14.031Z,18.72
2023-02-24T07:40:13.757Z,19.88
2023-02-24T07:41:15.528Z,17.72
2023-02-24T07:42:14.317Z,17.00
2023-02-24T07:43:14.076Z,21.00
2023-02-24T07:44:13.615Z,20.24
2023-02-24T07:45:19.492Z,6.72
2023-02-24T07:46:14.387Z,14.08
2023-02-24T07:47:13.732Z,35.80
2023-02-24T07:48:14.606Z,16.64
2023-02-24T07:49:15.259Z,16.28
2023-02-24T07:50:14.181Z,16.04
2023-02-24T07:51:14.379Z,35.96
2023-02-24T07:52:14.770Z,30.80
2023-02-24T07:53:14.280Z,18.52
2023-02-24T07:54:13.786Z,16.32
2023-02-24T07:55:14.436Z,16.60
2023-02-24T07:56:14.171Z,21.84
2023-02-24T07:57:14.360Z,31.08
2023-02-24T07:58:14.354Z,21.96
2023-02-24T07:59:14.102Z,28.96
2023-02-24T08:00:14.602Z,19.96
2023-02-24T08:01:14.789Z,16.76
2023-02-24T08:02:14.577Z,18.28
2023-02-24T08:03:14.192Z,11.52
2023-02-24T08:04:13.373Z,21.20
2023-02-24T08:05:13.356Z,23.96
2023-02-24T08:06:13.418Z,14.80
2023-02-24T08:07:13.326Z,30.08
2023-02-24T08:08:13.388Z,24.60
2023-02-24T08:09:13.405Z,16.16
2023-02-24T08:10:13.425Z,20.76
2023-02-24T08:11:13.696Z,28.84
2023-02-24T08:12:13.797Z,27.20
2023-02-24T08:13:13.778Z,31.20
2023-02-24T08:14:13.766Z,25.36
2023-02-24T08:15:13.718Z,33.08
2023-02-24T08:16:13.744Z,23.04
2023-02-24T08:17:15.217Z,26.72
2023-02-24T08:18:13.424Z,31.68
2023-02-24T08:19:13.357Z,39.88
2023-02-24T08:20:13.330Z,32.48
2023-02-24T08:21:13.321Z,27.64
2023-02-24T08:22:13.512Z,21.28
2023-02-24T08:23:13.870Z,31.16
2023-02-24T08:24:13.986Z,38.20
2023-02-24T08:25:13.147Z,20.92
2023-02-24T08:26:13.275Z,11.36
2023-02-24T08:27:13.470Z,17.64
2023-02-24T08:28:13.404Z,17.08
2023-02-24T08:29:14.021Z,17.48
2023-02-24T08:30:14.972Z,22.28
2023-02-24T08:31:13.219Z,32.32
2023-02-24T08:32:13.329Z,23.68
2023-02-24T08:33:13.561Z,25.52
2023-02-24T08:34:13.664Z,23.04
2023-02-24T08:35:13.876Z,30.56
2023-02-24T08:36:13.888Z,21.92
2023-02-24T08:37:13.900Z,26.92
2023-02-24T08:38:12.961Z,25.16
2023-02-24T08:39:12.990Z,25.28
2023-02-24T08:40:12.857Z,30.00
2023-02-24T08:41:13.776Z,20.68
2023-02-24T08:42:19.922Z,17.76
2023-02-24T08:43:13.032Z,37.68
2023-02-24T08:44:13.104Z,30.24
2023-02-24T08:45:13.205Z,56.36
2023-02-24T08:46:14.062Z,49.16
2023-02-24T08:47:13.118Z,39.32
2023-02-24T08:48:13.385Z,60.40
2023-02-24T08:49:13.361Z,37.04
2023-02-24T08:50:13.437Z,53.48
2023-02-24T08:51:45.859Z,40.56
2023-02-24T08:52:14.240Z,40.80
2023-02-24T08:53:13.164Z,38.36
2023-02-24T08:54:13.240Z,53.08
2023-02-24T08:55:13.250Z,44.88
2023-02-24T08:56:13.452Z,26.40
2023-02-24T08:57:13.443Z,33.40
2023-02-24T08:58:13.417Z,30.00
2023-02-24T08:59:13.458Z,38.08
2023-02-24T09:00:13.587Z,29.20
2023-02-24T09:01:13.529Z,13.40
2023-02-24T09:02:13.952Z,19.04
2023-02-24T09:03:13.749Z,18.24
2023-02-24T09:04:13.658Z,10.72
2023-02-24T09:05:14.675Z,26.32
2023-02-24T09:06:14.107Z,18.32
2023-02-24T09:07:13.009Z,20.56
2023-02-24T09:08:13.154Z,22.80
2023-02-24T09:09:13.683Z,27.96
2023-02-24T09:10:14.111Z,27.36
2023-02-24T09:11:13.587Z,22.24
2023-02-24T09:12:14.026Z,32.88
2023-02-24T09:13:13.170Z,33.64
2023-02-24T09:14:26.630Z,42.80
2023-02-24T09:15:13.991Z,28.76
2023-02-24T09:16:13.048Z,29.48
2023-02-24T09:17:13.236Z,32.64
2023-02-24T09:18:13.173Z,37.56
2023-02-24T09:19:13.354Z,25.16
2023-02-24T09:20:13.520Z,28.40
2023-02-24T09:21:13.514Z,30.12
2023-02-24T09:22:20.779Z,28.92
2023-02-24T09:23:13.223Z,39.08
2023-02-24T09:24:15.456Z,37.72
2023-02-24T09:25:13.837Z,30.56
2023-02-24T09:26:13.934Z,29.36
2023-02-24T09:27:12.914Z,35.60
2023-02-24T09:28:13.058Z,45.68
2023-02-24T09:29:13.070Z,46.84
2023-02-24T09:30:13.303Z,34.44
2023-02-24T09:31:13.904Z,39.16
2023-02-24T09:32:13.353Z,23.72
2023-02-24T09:33:13.780Z,33.24
2023-02-24T09:34:13.273Z,35.12
2023-02-24T09:35:13.474Z,37.92
2023-02-24T09:36:13.629Z,36.16
2023-02-24T09:37:13.566Z,22.32
2023-02-24T09:38:13.691Z,23.76
2023-02-24T09:39:13.839Z,39.60
2023-02-24T09:40:13.878Z,20.04
2023-02-24T09:41:18.828Z,25.16
2023-02-24T09:42:13.395Z,21.76
2023-02-24T09:44:16.381Z,26.40
2023-02-24T09:45:13.547Z,19.84
2023-02-24T09:46:14.053Z,19.48
2023-02-24T09:47:13.274Z,26.48
2023-02-24T09:48:13.367Z,28.80
2023-02-24T09:49:13.483Z,42.12
2023-02-24T09:50:13.842Z,30.00
2023-02-24T09:51:14.085Z,43.40
2023-02-24T09:52:13.141Z,41.52
2023-02-24T09:53:13.562Z,55.36
2023-02-24T09:54:13.599Z,46.72
2023-02-24T09:55:13.803Z,58.80
2023-02-24T09:56:13.785Z,49.88
2023-02-24T09:57:13.839Z,63.24
2023-02-24T09:58:14.091Z,53.48
2023-02-24T09:59:13.084Z,61.12
2023-02-24T10:00:13.029Z,30.40
2023-02-24T10:01:13.143Z,44.16
2023-02-24T10:02:13.269Z,55.12
2023-02-24T10:03:13.291Z,59.24
2023-02-24T10:04:20.803Z,46.52
2023-02-24T10:05:13.564Z,32.44
2023-02-24T10:06:13.601Z,46.80
2023-02-24T10:07:14.099Z,47.56
2023-02-24T10:08:13.083Z,53.44
2023-02-24T10:09:13.202Z,34.48
2023-02-24T10:10:13.259Z,33.24
2023-02-24T10:11:14.378Z,33.48
2023-02-24T10:12:13.570Z,22.24
2023-02-24T10:13:13.655Z,26.84
2023-02-24T10:14:14.026Z,37.84
2023-02-24T10:15:13.169Z,21.12
2023-02-24T10:16:13.499Z,37.32
2023-02-24T10:17:13.689Z,39.00
2023-02-24T10:18:13.875Z,34.24
2023-02-24T10:19:13.959Z,46.72
2023-02-24T10:20:12.893Z,58.96
2023-02-24T10:21:13.006Z,30.84
2023-02-24T10:22:13.008Z,54.16
2023-02-24T10:23:13.271Z,42.00
2023-02-24T10:24:13.253Z,36.40
2023-02-24T10:25:13.295Z,47.04
2023-02-24T10:26:13.573Z,38.28
2023-02-24T10:27:16.804Z,18.27
2023-02-24T10:28:12.996Z,45.20
2023-02-24T10:29:13.201Z,36.68
2023-02-24T10:30:13.238Z,50.36
2023-02-24T10:31:13.842Z,40.84
2023-02-24T10:32:13.379Z,44.24
2023-02-24T10:33:19.700Z,29.44
2023-02-24T10:34:13.725Z,59.76
2023-02-24T10:35:14.060Z,34.60
2023-02-24T10:36:13.139Z,36.80
2023-02-24T10:37:27.257Z,52.08
2023-02-24T10:38:18.615Z,55.48
2023-02-24T10:39:14.782Z,45.68
2023-02-24T10:40:13.886Z,53.16
2023-02-24T10:41:13.222Z,39.72
2023-02-24T10:42:13.573Z,37.36
2023-02-24T10:43:13.703Z,62.40
2023-02-24T10:44:13.749Z,49.48
2023-02-24T10:45:17.658Z,49.88
2023-02-24T10:46:13.437Z,57.04
2023-02-24T10:47:13.807Z,53.80
2023-02-24T10:48:15.539Z,52.24
2023-02-24T10:49:13.704Z,45.16
2023-02-24T10:50:14.069Z,46.20
2023-02-24T10:51:13.427Z,65.84
2023-02-24T10:52:13.685Z,67.44
2023-02-24T10:53:13.841Z,34.48
2023-02-24T10:54:13.853Z,45.52
2023-02-24T10:55:13.918Z,33.68
2023-02-24T10:56:13.200Z,55.80
2023-02-24T10:57:13.235Z,49.08
2023-02-24T10:58:13.432Z,54.56
2023-02-24T10:59:13.727Z,48.56
2023-02-24T11:00:13.729Z,56.76
2023-02-24T11:01:13.847Z,53.20
2023-02-24T11:02:12.753Z,57.56
2023-02-24T11:03:19.482Z,28.64
2023-02-24T11:04:12.988Z,39.88
2023-02-24T11:05:12.889Z,43.28
2023-02-24T11:06:13.046Z,52.24
2023-02-24T11:07:12.990Z,52.72
2023-02-24T11:08:13.071Z,26.72
2023-02-24T11:09:13.267Z,52.24
2023-02-24T11:10:13.494Z,49.80
2023-02-24T11:11:13.386Z,67.48
2023-02-24T11:12:13.325Z,48.56
2023-02-24T11:13:13.654Z,36.24
2023-02-24T11:14:13.715Z,62.64
2023-02-24T11:15:13.816Z,61.00
2023-02-24T11:16:14.189Z,33.88
2023-02-24T11:17:13.332Z,43.80
2023-02-24T11:18:13.493Z,48.96
2023-02-24T11:19:13.573Z,37.52
2023-02-24T11:20:14.080Z,42.48
2023-02-24T11:21:13.296Z,39.20
2023-02-24T11:22:13.398Z,41.68
2023-02-24T11:23:13.425Z,20.72
2023-02-24T11:24:13.327Z,33.60
2023-02-24T11:25:13.401Z,42.56
2023-02-24T11:26:13.619Z,38.16
2023-02-24T11:27:13.694Z,49.76
2023-02-24T11:28:14.032Z,70.72
2023-02-24T11:29:12.949Z,62.72
2023-02-24T11:30:12.947Z,83.76
2023-02-24T11:31:13.532Z,51.32
2023-02-24T11:32:15.483Z,56.32
2023-02-24T11:33:13.843Z,48.36
2023-02-24T11:34:14.222Z,37.48
2023-02-24T11:35:13.143Z,42.16
2023-02-24T11:36:13.201Z,24.96
2023-02-24T11:37:13.318Z,23.28
2023-02-24T11:38:13.879Z,27.56
2023-02-24T11:39:20.466Z,33.12
2023-02-24T11:40:13.766Z,23.36
2023-02-24T11:41:13.855Z,29.88
2023-02-24T11:42:14.023Z,29.72
2023-02-24T11:43:13.755Z,30.96
2023-02-24T11:44:15.360Z,20.40
2023-02-24T11:45:13.978Z,29.52
2023-02-24T11:46:13.058Z,22.60
2023-02-24T11:47:13.178Z,34.60
2023-02-24T11:48:13.373Z,34.68
2023-02-24T11:49:13.519Z,20.24
2023-02-24T11:50:13.433Z,15.60
2023-02-24T11:51:13.498Z,23.56
2023-02-24T11:52:13.874Z,37.84
2023-02-24T11:53:13.885Z,35.20
2023-02-24T11:54:13.944Z,33.28
2023-02-24T11:55:12.901Z,33.76
2023-02-24T11:56:13.354Z,31.36
2023-02-24T11:57:13.625Z,26.92
2023-02-24T11:58:13.800Z,33.20
2023-02-24T11:59:13.732Z,28.68
2023-02-24T12:00:13.813Z,24.52
2023-02-24T12:01:13.665Z,39.16
2023-02-24T12:02:13.815Z,26.88
2023-02-24T12:03:13.852Z,17.88
2023-02-24T12:04:12.917Z,18.52
2023-02-24T12:05:12.795Z,18.20
2023-02-24T12:06:13.675Z,18.68
2023-02-24T12:07:13.507Z,20.52
2023-02-24T12:08:13.501Z,21.20
2023-02-24T12:09:13.711Z,23.48
2023-02-24T12:10:17.411Z,24.64
2023-02-24T12:11:13.706Z,31.40
2023-02-24T12:12:14.086Z,28.56
2023-02-24T12:13:13.500Z,22.08
2023-02-24T12:14:13.653Z,19.96
2023-02-24T12:15:13.487Z,25.16
2023-02-24T12:16:13.642Z,16.40
2023-02-24T12:17:14.200Z,12.00
2023-02-24T12:18:13.857Z,13.16
2023-02-24T12:19:12.991Z,16.64
2023-02-24T12:20:12.904Z,25.96
2023-02-24T12:21:13.170Z,27.48
2023-02-24T12:22:13.217Z,20.52
2023-02-24T12:23:13.091Z,27.56
2023-02-24T12:24:13.116Z,29.14
2023-02-24T12:25:13.161Z,21.20
2023-02-24T12:26:13.029Z,21.20
2023-02-24T12:27:13.019Z,24.64
2023-02-24T12:28:13.612Z,28.60
2023-02-24T12:29:14.853Z,23.12
2023-02-24T12:30:14.166Z,24.00
2023-02-24T12:31:13.580Z,26.32
2023-02-24T12:32:13.907Z,22.24
2023-02-24T12:33:13.101Z,16.20
2023-02-24T12:34:13.107Z,22.12
2023-02-24T12:35:13.042Z,24.64
2023-02-24T12:36:13.014Z,18.88
2023-02-24T12:37:13.138Z,15.08
2023-02-24T12:38:13.148Z,12.00
2023-02-24T12:39:13.357Z,17.80
2023-02-24T12:40:13.277Z,25.24
2023-02-24T12:41:13.561Z,29.64
2023-02-24T12:42:13.750Z,21.24
2023-02-24T12:43:13.719Z,22.16
2023-02-24T12:44:13.758Z,19.52
2023-02-24T12:45:13.772Z,11.44
2023-02-24T12:46:13.863Z,11.52
2023-02-24T12:47:13.193Z,6.44
2023-02-24T12:48:13.211Z,9.92
2023-02-24T12:49:13.625Z,17.36
2023-02-24T12:50:13.934Z,14.60
2023-02-24T12:51:12.830Z,13.04
2023-02-24T12:52:13.675Z,19.24
2023-02-24T12:53:13.658Z,8.16
2023-02-24T12:54:13.971Z,20.28
2023-02-24T12:55:13.302Z,26.64
2023-02-24T12:56:13.190Z,17.88
2023-02-24T12:57:13.086Z,16.80
2023-02-24T12:58:13.000Z,22.36
2023-02-24T12:59:12.947Z,20.40
2023-02-24T13:00:13.000Z,19.84
2023-02-24T13:01:13.354Z,13.00
2023-02-24T13:02:13.839Z,22.24
2023-02-24T13:03:13.998Z,18.56
2023-02-24T13:04:13.176Z,24.16